Time;durP1;ratioP1;P1;durP2;ratioP2;P2;SDS_P1;SDS_P2;PMS_P1;PMS_P2;Temp;Humidity;BMP_temperature;BMP_pressure;BME280_temperature;BME280_humidity;BME280_pressure;Samples;Min_cycle;Max_cycle;Signal;HPM_P1;HPM_P2
2022/03/08 00:01:21;;;;;;;;;33.50;28.50;;;;;8.16;33.88;101480.94;5021369;28;45882;-81
2022/03/08 00:03:46;;;;;;;;;35.50;27.50;;;;;8.22;33.97;101489.66;5022119;28;45292;-81
2022/03/08 00:06:12;;;;;;;;;32.75;28.50;;;;;7.92;34.11;101437.22;5023077;27;46550;-81
2022/03/08 00:08:37;;;;;;;;;28.00;28.00;;;;;7.99;33.66;101454.75;5003498;28;45741;-81
2022/03/08 00:11:03;;;;;;;;;29.25;28.50;;;;;8.17;33.94;101480.00;5027874;28;45517;-81
2022/03/08 00:13:29;;;;;;;;;29.75;26.50;;;;;8.10;34.09;101475.75;5026355;28;45274;-81
2022/03/08 00:15:54;;;;;;;;;28.75;25.50;;;;;7.73;34.30;101420.81;5022442;28;45709;-81
2022/03/08 00:18:20;;;;;;;;;27.25;25.50;;;;;7.81;34.01;101454.22;5008114;28;45466;-81
2022/03/08 00:20:45;;;;;;;;;31.75;28.50;;;;;7.88;34.29;101454.09;5023876;28;45693;-81
2022/03/08 00:23:11;;;;;;;;;31.25;27.25;;;;;7.79;34.41;101441.91;5023513;27;45593;-81
2022/03/08 00:25:36;;;;;;;;;36.50;29.75;;;;;7.84;33.96;101445.31;5025164;27;45626;-81
2022/03/08 00:28:01;;;;;;;;;33.75;26.25;;;;;8.02;33.87;101478.56;5021851;27;45597;-81
2022/03/08 00:30:27;;;;;;;;;31.00;27.00;;;;;7.55;34.07;101404.34;5022629;27;45456;-82
2022/03/08 00:32:53;;;;;;;;;34.00;31.25;;;;;7.90;34.06;101460.25;5024134;27;45277;-81
2022/03/08 00:35:21;;;;;;;;;32.00;28.50;;;;;7.25;34.32;101347.50;5048912;27;46338;-87
2022/03/08 00:37:48;;;;;;;;;39.25;31.25;;;;;7.88;34.64;101460.28;5025037;28;45591;-88
2022/03/08 00:40:14;;;;;;;;;35.00;31.50;;;;;7.68;34.57;101436.84;5023418;27;45417;-88
2022/03/08 00:42:40;;;;;;;;;25.50;25.25;;;;;7.75;34.63;101454.38;5024849;27;45548;-88
2022/03/08 00:45:09;;;;;;;;;32.50;27.75;;;;;7.89;34.71;101485.94;5023460;28;45566;-87
2022/03/08 00:47:36;;;;;;;;;32.00;25.00;;;;;7.78;34.58;101478.19;5024900;27;45401;-87
2022/03/08 00:50:04;;;;;;;;;30.50;28.50;;;;;7.80;34.97;101484.34;5026154;28;45294;-87
2022/03/08 00:52:30;;;;;;;;;31.25;30.25;;;;;7.76;35.05;101472.03;5028619;27;45463;-87
2022/03/08 00:54:58;;;;;;;;;33.75;29.25;;;;;7.50;34.94;101430.09;5019678;27;45444;-87
2022/03/08 00:57:24;;;;;;;;;32.25;27.00;;;;;7.62;35.22;101463.47;5028752;27;45361;-87
2022/03/08 00:59:49;;;;;;;;;27.25;24.75;;;;;7.10;35.01;101367.25;5037700;27;45341;-87
2022/03/08 01:02:14;;;;;;;;;29.25;27.50;;;;;7.33;35.08;101411.88;5007518;28;45519;-87
2022/03/08 01:04:40;;;;;;;;;32.25;22.00;;;;;7.59;34.96;101453.81;5019037;27;45351;-87
2022/03/08 01:07:06;;;;;;;;;28.75;28.00;;;;;7.69;35.38;101473.06;5096996;27;45543;-87
2022/03/08 01:09:31;;;;;;;;;33.75;29.75;;;;;7.25;35.11;101400.53;5017566;28;45363;-87
2022/03/08 01:11:56;;;;;;;;;30.25;26.00;;;;;7.57;35.28;101460.03;5020154;27;45550;-87
2022/03/08 01:14:22;;;;;;;;;37.25;32.50;;;;;7.39;35.45;101432.97;5033040;27;47556;-87
2022/03/08 01:16:47;;;;;;;;;29.25;26.75;;;;;7.42;35.56;101441.75;5020882;27;45812;-86
2022/03/08 01:19:13;;;;;;;;;31.25;25.50;;;;;7.56;35.32;101464.47;5026543;27;45553;-88
2022/03/08 01:21:38;;;;;;;;;30.25;26.00;;;;;7.50;35.46;101451.31;5022693;28;45715;-88
2022/03/08 01:24:05;;;;;;;;;27.75;26.00;;;;;7.21;35.51;101393.56;5090618;27;47618;-88
2022/03/08 01:26:31;;;;;;;;;30.25;24.75;;;;;7.57;35.43;101457.41;5022768;27;45424;-88
2022/03/08 01:28:57;;;;;;;;;28.50;25.00;;;;;7.50;35.61;101453.13;5025176;27;45246;-87
2022/03/08 01:31:23;;;;;;;;;29.50;27.00;;;;;7.56;35.30;101466.22;5002967;28;45707;-87
2022/03/08 01:33:49;;;;;;;;;27.00;25.00;;;;;7.30;35.15;101421.66;5027150;27;45288;-87
2022/03/08 01:36:15;;;;;;;;;36.00;28.00;;;;;7.22;35.56;101410.34;5028222;28;45287;-87
2022/03/08 01:38:40;;;;;;;;;25.00;23.50;;;;;7.28;35.66;101419.06;5032658;27;45580;-88
2022/03/08 01:41:06;;;;;;;;;34.50;28.00;;;;;7.26;35.42;101427.91;5024958;27;45492;-88
2022/03/08 01:43:31;;;;;;;;;28.00;28.00;;;;;7.43;35.90;101455.00;5029203;27;46555;-87
2022/03/08 01:45:57;;;;;;;;;30.25;28.50;;;;;7.40;35.92;101461.25;5012811;28;46030;-87
2022/03/08 01:48:22;;;;;;;;;28.50;26.25;;;;;6.53;35.83;101310.03;5021858;27;45306;-87
2022/03/08 01:50:47;;;;;;;;;26.00;23.25;;;;;7.41;35.50;101462.13;5028273;27;45499;-87
2022/03/08 01:53:13;;;;;;;;;34.75;31.25;;;;;7.40;35.57;101455.06;5032663;27;46973;-88
2022/03/08 01:55:39;;;;;;;;;34.00;29.00;;;;;7.11;35.96;101410.53;5049035;27;45476;-87
2022/03/08 01:58:04;;;;;;;;;29.75;27.75;;;;;7.37;36.18;101453.34;5025407;28;45471;-87
2022/03/08 02:00:31;;;;;;;;;31.00;24.00;;;;;7.32;35.76;101457.84;5023418;27;45416;-88
2022/03/08 02:02:57;;;;;;;;;29.75;29.50;;;;;7.02;36.20;101411.56;5019783;27;45391;-88
2022/03/08 02:05:24;;;;;;;;;29.50;27.50;;;;;7.23;35.93;101443.91;5031010;28;45474;-87
2022/03/08 02:07:50;;;;;;;;;32.00;26.00;;;;;6.98;36.47;101401.94;5024842;28;45419;-87
2022/03/08 02:10:15;;;;;;;;;28.00;19.25;;;;;6.90;36.24;101394.13;5036380;28;45427;-88
2022/03/08 02:12:41;;;;;;;;;27.75;25.50;;;;;7.16;36.14;101440.47;5035340;28;45433;-87
2022/03/08 02:15:15;;;;;;;;;28.00;26.00;;;;;7.14;36.58;101437.88;5035692;28;45397;-87
2022/03/08 02:17:40;;;;;;;;;23.50;22.50;;;;;7.15;36.51;101433.44;5035536;28;45369;-87
2022/03/08 02:20:07;;;;;;;;;35.25;31.25;;;;;6.75;36.40;101366.13;5029443;28;45465;-88
2022/03/08 02:22:32;;;;;;;;;28.25;28.00;;;;;6.95;36.66;101391.38;5034290;28;45446;-87
2022/03/08 02:24:58;;;;;;;;;28.50;24.25;;;;;6.91;36.34;101387.94;5035666;28;45719;-87
2022/03/08 02:27:23;;;;;;;;;25.25;22.00;;;;;7.17;36.36;101427.22;5035917;28;45552;-87
2022/03/08 02:29:50;;;;;;;;;29.75;28.00;;;;;7.15;36.17;101425.50;5037202;27;45559;-88
2022/03/08 02:32:16;;;;;;;;;32.50;27.75;;;;;6.57;36.17;101320.56;5035653;27;45515;-87
2022/03/08 02:34:42;;;;;;;;;27.50;26.25;;;;;7.01;36.29;101395.72;5014875;27;45323;-86
2022/03/08 02:37:13;;;;;;;;;30.00;26.25;;;;;7.13;36.66;101422.00;5035335;28;45623;-87
2022/03/08 02:39:39;;;;;;;;;28.00;25.75;;;;;7.05;36.60;101405.38;5035952;28;45415;-87
2022/03/08 02:42:06;;;;;;;;;34.50;30.00;;;;;6.87;36.51;101388.00;5033867;28;46401;-87
2022/03/08 02:44:32;;;;;;;;;34.50;29.25;;;;;7.08;36.69;101419.41;5035399;28;45405;-87
2022/03/08 02:47:02;;;;;;;;;38.25;33.75;;;;;6.79;36.37;101371.38;5032785;28;45525;-87
2022/03/08 02:49:27;;;;;;;;;30.00;27.00;;;;;6.72;36.54;101354.72;5028150;28;45956;-87
2022/03/08 02:51:53;;;;;;;;;36.00;31.25;;;;;6.62;36.53;101340.75;5034871;28;46232;-87
2022/03/08 02:54:18;;;;;;;;;28.25;24.25;;;;;7.03;36.46;101401.88;5034845;28;45339;-87
2022/03/08 02:56:43;;;;;;;;;35.75;26.75;;;;;7.03;36.55;101401.88;5034868;28;45337;-87
2022/03/08 02:59:09;;;;;;;;;30.75;29.00;;;;;6.83;36.77;101370.41;5035824;28;45262;-87
2022/03/08 03:01:34;;;;;;;;;32.00;29.25;;;;;6.67;36.39;101353.91;5038950;27;46302;-87
2022/03/08 03:04:00;;;;;;;;;31.25;26.50;;;;;6.98;36.50;101407.25;5034796;28;45335;-87
2022/03/08 03:06:28;;;;;;;;;29.75;27.25;;;;;6.95;36.83;101399.34;5039270;28;45426;-87
2022/03/08 03:08:53;;;;;;;;;36.75;30.00;;;;;6.74;36.82;101372.34;5034207;28;45419;-87
2022/03/08 03:11:19;;;;;;;;;34.50;28.00;;;;;6.82;37.02;101374.84;5034775;28;49040;-87
2022/03/08 03:13:44;;;;;;;;;31.25;26.25;;;;;6.52;36.92;101331.22;5034965;28;45534;-87
2022/03/08 03:16:09;;;;;;;;;32.00;29.50;;;;;6.50;37.25;101339.19;5035130;28;45463;-87
2022/03/08 03:18:35;;;;;;;;;35.50;30.75;;;;;6.82;37.41;101388.09;5034997;28;45483;-86
2022/03/08 03:21:00;;;;;;;;;34.00;27.75;;;;;6.47;37.34;101331.31;5034261;28;45702;-86
2022/03/08 03:23:25;;;;;;;;;31.00;29.00;;;;;6.81;37.34;101393.41;5035402;28;45443;-87
2022/03/08 03:25:51;;;;;;;;;31.75;28.75;;;;;6.55;37.73;101344.41;5034716;28;45342;-87
2022/03/08 03:28:16;;;;;;;;;31.50;30.00;;;;;6.71;37.51;101368.88;5035215;28;45606;-87
2022/03/08 03:30:41;;;;;;;;;32.75;29.75;;;;;6.73;37.20;101365.28;5036127;27;53532;-87
2022/03/08 03:33:07;;;;;;;;;29.25;25.00;;;;;6.64;37.46;101348.69;5034272;27;45427;-87
2022/03/08 03:35:32;;;;;;;;;30.00;28.00;;;;;6.78;37.24;101377.59;5037815;28;45888;-87
2022/03/08 03:37:58;;;;;;;;;32.25;28.25;;;;;6.57;37.20;101345.25;5029614;28;45528;-87
2022/03/08 03:40:23;;;;;;;;;29.75;27.75;;;;;6.69;37.50;101374.19;5103563;27;47601;-87
2022/03/08 03:42:48;;;;;;;;;29.75;27.50;;;;;6.67;37.74;101370.72;5034473;28;45496;-87
2022/03/08 03:45:14;;;;;;;;;37.00;31.75;;;;;6.48;37.31;101340.13;5033861;28;45409;-87
2022/03/08 03:47:40;;;;;;;;;29.25;27.75;;;;;6.65;37.29;101374.25;5030821;28;45726;-87
2022/03/08 03:50:07;;;;;;;;;33.25;29.00;;;;;6.55;37.70;101365.59;5033860;28;46187;-87
2022/03/08 03:52:33;;;;;;;;;30.50;28.00;;;;;6.10;37.77;101275.47;5033226;28;45542;-87
2022/03/08 03:54:58;;;;;;;;;31.75;28.75;;;;;6.60;37.47;101363.75;5034036;28;45482;-87
2022/03/08 03:57:23;;;;;;;;;32.00;30.25;;;;;6.18;37.59;101302.69;5034917;28;45158;-87
2022/03/08 03:59:49;;;;;;;;;34.00;30.00;;;;;6.58;37.83;101368.22;5034273;28;45403;-87
2022/03/08 04:02:14;;;;;;;;;28.75;27.00;;;;;6.44;38.01;101349.91;5016384;28;45449;-87
2022/03/08 04:04:39;;;;;;;;;33.00;30.50;;;;;6.54;37.89;101372.69;5033290;28;45419;-87
2022/03/08 04:07:05;;;;;;;;;32.75;30.25;;;;;6.45;37.83;101361.38;5033773;28;45525;-87
2022/03/08 04:09:31;;;;;;;;;35.00;24.50;;;;;6.53;38.06;101372.69;5035791;28;46019;-87
2022/03/08 04:11:56;;;;;;;;;27.75;24.00;;;;;6.09;38.30;101295.78;5033208;28;45691;-87
2022/03/08 04:14:22;;;;;;;;;38.25;30.25;;;;;6.51;37.82;101370.09;5034277;28;45900;-87
2022/03/08 04:16:47;;;;;;;;;28.75;26.75;;;;;6.32;37.81;101351.00;5039867;28;45677;-86
2022/03/08 04:19:13;;;;;;;;;34.75;31.75;;;;;6.41;37.82;101354.38;5033061;28;45725;-87
2022/03/08 04:21:38;;;;;;;;;30.75;28.25;;;;;6.49;37.96;101369.25;5012847;28;45447;-87
2022/03/08 04:24:04;;;;;;;;;29.75;28.50;;;;;6.50;37.79;101365.69;5033458;27;45602;-87
2022/03/08 04:26:29;;;;;;;;;30.75;24.00;;;;;6.50;38.22;101363.03;5034507;28;45541;-87
2022/03/08 04:28:55;;;;;;;;;31.25;29.00;;;;;6.22;38.34;101322.03;5033716;28;46690;-87
2022/03/08 04:31:20;;;;;;;;;38.00;27.50;;;;;6.43;38.02;101360.53;5033439;28;45458;-87
2022/03/08 04:33:45;;;;;;;;;33.75;31.75;;;;;6.15;38.27;101310.66;5034367;28;45379;-87
2022/03/08 04:36:11;;;;;;;;;31.50;25.25;;;;;6.07;38.00;101300.22;5033726;27;45545;-87
2022/03/08 04:38:36;;;;;;;;;30.25;24.00;;;;;6.34;38.37;101351.84;5033782;28;45774;-87
2022/03/08 04:41:02;;;;;;;;;33.50;28.00;;;;;5.96;38.12;101288.06;5033299;28;45518;-87
2022/03/08 04:43:29;;;;;;;;;30.00;26.00;;;;;6.12;38.29;101314.25;5034164;27;45592;-87
2022/03/08 04:45:54;;;;;;;;;31.00;27.50;;;;;5.60;38.50;101230.38;5033505;28;45289;-87
2022/03/08 04:48:19;;;;;;;;;26.75;26.75;;;;;6.09;38.34;101314.31;5028707;28;45494;-88
2022/03/08 04:50:45;;;;;;;;;32.75;28.25;;;;;5.97;38.20;101289.78;5014631;28;45453;-87
2022/03/08 04:53:10;;;;;;;;;30.25;29.00;;;;;5.79;38.10;101254.78;5040878;28;45213;-87
2022/03/08 04:55:36;;;;;;;;;31.75;26.75;;;;;5.93;38.16;101288.94;5015203;28;46513;-87
2022/03/08 04:58:01;;;;;;;;;27.75;27.00;;;;;6.35;37.89;101350.06;5033843;27;46224;-86
2022/03/08 05:00:26;;;;;;;;;28.00;27.00;;;;;6.01;38.12;101304.72;5035907;27;45486;-87
2022/03/08 05:02:52;;;;;;;;;29.75;27.00;;;;;5.77;38.50;101255.69;5040878;27;45528;-87
2022/03/08 05:05:17;;;;;;;;;33.75;29.50;;;;;6.31;38.13;101340.41;5012229;28;45421;-87
2022/03/08 05:07:42;;;;;;;;;33.50;32.50;;;;;6.36;37.99;101353.56;5032426;28;45442;-87
2022/03/08 05:10:11;;;;;;;;;29.75;26.50;;;;;5.82;38.34;101267.06;5032937;28;45437;-87
2022/03/08 05:12:37;;;;;;;;;34.50;29.00;;;;;6.03;38.53;101292.34;5033462;28;45576;-87
2022/03/08 05:15:07;;;;;;;;;36.50;29.25;;;;;5.79;38.44;101253.91;5033827;28;45531;-87
2022/03/08 05:17:33;;;;;;;;;35.25;32.25;;;;;6.35;38.12;101342.13;5039680;28;46202;-87
2022/03/08 05:19:58;;;;;;;;;27.50;26.00;;;;;6.18;38.37;101322.97;5020275;27;45530;-87
2022/03/08 05:22:23;;;;;;;;;25.25;24.25;;;;;6.40;38.53;101347.34;5033173;28;45478;-87
2022/03/08 05:24:49;;;;;;;;;30.50;27.25;;;;;6.32;38.10;101329.81;5033231;28;45515;-87
2022/03/08 05:27:14;;;;;;;;;31.50;28.00;;;;;6.08;38.50;101295.78;5012030;28;46093;-87
2022/03/08 05:29:40;;;;;;;;;34.00;31.25;;;;;6.34;38.08;101335.97;5031417;28;45556;-87
2022/03/08 05:32:05;;;;;;;;;26.50;23.75;;;;;6.30;38.36;101343.97;5035077;28;45410;-87
2022/03/08 05:34:31;;;;;;;;;32.50;28.25;;;;;6.09;38.48;101310.78;5032919;28;45440;-87
2022/03/08 05:36:56;;;;;;;;;28.50;24.25;;;;;6.10;38.41;101313.38;5032866;28;46216;-87
2022/03/08 05:39:22;;;;;;;;;30.00;26.75;;;;;6.14;38.49;101314.22;5033143;27;45453;-87
2022/03/08 05:41:48;;;;;;;;;27.75;25.00;;;;;6.25;38.91;101327.28;5032674;28;45536;-87
2022/03/08 05:44:14;;;;;;;;;33.50;31.00;;;;;6.17;38.56;101322.09;5026472;28;45464;-87
2022/03/08 05:46:39;;;;;;;;;23.00;22.00;;;;;6.25;39.07;101332.56;5028332;27;46108;-86
2022/03/08 05:49:04;;;;;;;;;33.00;29.75;;;;;6.13;38.73;101325.69;5035185;27;46339;-87
2022/03/08 05:51:30;;;;;;;;;28.00;26.25;;;;;6.01;38.97;101316.19;5032995;28;45908;-87
2022/03/08 05:53:55;;;;;;;;;38.00;32.50;;;;;5.91;39.05;101296.91;5032627;28;45247;-87
2022/03/08 05:56:21;;;;;;;;;36.00;29.00;;;;;6.00;38.81;101321.53;5024558;27;55510;-88
2022/03/08 05:58:46;;;;;;;;;35.75;28.00;;;;;5.80;39.17;101290.91;5011989;28;45574;-87
2022/03/08 06:01:11;;;;;;;;;30.50;25.25;;;;;5.68;39.24;101262.00;5007387;28;45989;-87
2022/03/08 06:03:37;;;;;;;;;31.25;29.50;;;;;5.74;39.33;101269.84;5024428;27;45520;-87
2022/03/08 06:06:02;;;;;;;;;30.50;25.75;;;;;5.80;39.08;101276.81;5031427;28;45575;-87
2022/03/08 06:08:28;;;;;;;;;30.50;30.50;;;;;6.18;38.91;101346.78;5010966;28;45463;-87
2022/03/08 06:10:53;;;;;;;;;33.00;31.75;;;;;6.02;39.07;101325.03;5006214;28;45314;-87
2022/03/08 06:13:19;;;;;;;;;27.00;25.75;;;;;5.96;38.98;101322.44;5020297;28;45289;-87
2022/03/08 06:15:44;;;;;;;;;32.00;31.00;;;;;6.15;38.96;101350.38;5020070;28;46214;-86
2022/03/08 06:18:09;;;;;;;;;28.50;28.00;;;;;5.92;39.23;101324.22;5025761;28;45469;-87
2022/03/08 06:20:35;;;;;;;;;29.75;27.75;;;;;5.81;39.28;101292.66;5033247;27;45606;-86
2022/03/08 06:23:00;;;;;;;;;37.50;30.25;;;;;5.88;39.31;101309.31;5018280;27;45557;-87
2022/03/08 06:25:26;;;;;;;;;3.50;1.00;;;;;5.74;39.50;101293.66;5008095;28;47041;-86
2022/03/08 06:27:51;;;;;;;;;41.25;31.00;;;;;5.91;39.42;101315.41;5060692;27;45391;-86
2022/03/08 06:30:16;;;;;;;;;22.25;22.25;;;;;5.91;39.57;101318.06;5018449;27;45271;-87
2022/03/08 06:32:42;;;;;;;;;34.75;31.25;;;;;5.68;39.17;101272.56;5002985;28;45542;-87
2022/03/08 06:35:07;;;;;;;;;33.00;28.50;;;;;5.98;39.23;101324.19;5008516;27;46345;-87
2022/03/08 06:37:33;;;;;;;;;32.00;30.50;;;;;5.86;39.30;101301.41;5018944;28;45352;-87
2022/03/08 06:39:58;;;;;;;;;34.50;27.00;;;;;5.63;39.43;101266.50;5006794;28;48544;-87
2022/03/08 06:42:23;;;;;;;;;32.00;26.00;;;;;5.87;39.67;101319.00;5019527;27;45537;-88
2022/03/08 06:44:49;;;;;;;;;30.00;30.00;;;;;5.64;39.68;101278.78;5004786;28;47615;-91
2022/03/08 06:47:14;;;;;;;;;30.75;30.00;;;;;5.80;40.15;101314.69;4994477;28;45394;-89
2022/03/08 06:49:41;;;;;;;;;30.00;28.25;;;;;6.19;39.59;101357.38;5015341;28;45274;-90
2022/03/08 06:52:09;;;;;;;;;23.75;21.75;;;;;5.79;39.36;101281.22;5018911;27;45504;-89
2022/03/08 06:54:35;;;;;;;;;31.25;28.50;;;;;5.74;39.81;101275.13;5020738;27;46592;-89
2022/03/08 06:57:00;;;;;;;;;39.00;33.25;;;;;5.71;39.75;101285.75;5001009;27;45801;-90
2022/03/08 06:59:26;;;;;;;;;34.25;29.50;;;;;5.81;39.46;101286.50;5005798;28;45482;-89
2022/03/08 07:01:52;;;;;;;;;28.25;25.50;;;;;5.54;39.14;101235.75;5007775;27;45459;-89
2022/03/08 07:04:18;;;;;;;;;36.75;31.50;;;;;5.74;38.91;101259.28;5093670;27;47336;-88
2022/03/08 07:06:43;;;;;;;;;30.00;30.00;;;;;6.01;39.07;101289.72;5026654;27;45444;-86
2022/03/08 07:09:09;;;;;;;;;33.00;31.25;;;;;6.09;39.04;101306.38;5027587;28;45521;-87
2022/03/08 07:11:37;;;;;;;;;34.00;30.50;;;;;5.79;38.81;101243.34;5024546;28;45356;-86
2022/03/08 07:14:06;;;;;;;;;29.75;26.50;;;;;6.44;39.08;101346.38;5022790;28;46464;-85
2022/03/08 07:16:31;;;;;;;;;35.00;30.50;;;;;6.27;38.69;101306.94;5023495;28;45435;-85
2022/03/08 07:18:56;;;;;;;;;35.75;28.75;;;;;6.70;38.74;101364.47;5023035;28;45272;-87
2022/03/08 07:21:22;;;;;;;;;40.00;33.25;;;;;6.70;38.84;101353.88;5017296;28;45306;-85
2022/03/08 07:23:47;;;;;;;;;34.75;32.00;;;;;6.60;38.67;101331.97;5023685;27;46435;-85
2022/03/08 07:26:12;;;;;;;;;35.50;32.00;;;;;6.84;38.65;101366.88;5022811;27;45238;-83
2022/03/08 07:28:38;;;;;;;;;40.50;33.50;;;;;6.57;38.63;101323.22;5022843;28;45222;-87
2022/03/08 07:31:03;;;;;;;;;32.75;32.75;;;;;6.60;38.25;101317.84;5030581;28;45713;-87
2022/03/08 07:33:29;;;;;;;;;41.00;33.75;;;;;6.72;38.24;101329.09;5017391;28;45297;-88
2022/03/08 07:35:54;;;;;;;;;39.50;32.00;;;;;6.80;38.32;101339.56;5024404;27;45503;-87
2022/03/08 07:38:20;;;;;;;;;41.75;32.50;;;;;7.08;38.59;101382.31;5027273;28;45636;-88
2022/03/08 07:40:45;;;;;;;;;36.75;32.75;;;;;6.82;38.28;101335.09;5027443;27;45317;-87
2022/03/08 07:43:11;;;;;;;;;40.25;33.00;;;;;7.18;38.36;101389.16;5005254;28;47424;-87
2022/03/08 07:45:37;;;;;;;;;37.00;30.75;;;;;7.17;38.27;101389.22;5055186;27;45417;-87
2022/03/08 07:48:06;;;;;;;;;34.75;27.25;;;;;6.80;38.03;101315.72;5008093;28;45542;-87
2022/03/08 07:50:33;;;;;;;;;33.75;33.25;;;;;6.96;38.16;101337.50;5077095;27;45654;-87
2022/03/08 07:52:59;;;;;;;;;34.25;33.50;;;;;6.98;37.96;101331.25;5015759;28;47022;-88
2022/03/08 07:55:26;;;;;;;;;38.25;34.00;;;;;6.98;37.91;101325.09;5010633;27;45970;-88
2022/03/08 07:57:52;;;;;;;;;38.25;33.25;;;;;7.46;38.17;101391.28;5008722;28;45603;-86
2022/03/08 08:00:17;;;;;;;;;48.50;34.75;;;;;7.53;37.63;101392.03;5004787;28;45481;-85
2022/03/08 08:02:43;;;;;;;;;35.75;32.25;;;;;7.16;37.64;101321.19;5030533;28;46254;-86
2022/03/08 08:05:09;;;;;;;;;40.50;36.25;;;;;7.52;37.13;101380.56;5029554;28;45530;-85
2022/03/08 08:07:34;;;;;;;;;40.00;33.00;;;;;7.57;37.04;101378.69;5023714;28;45435;-86
2022/03/08 08:10:00;;;;;;;;;44.00;36.00;;;;;7.52;37.49;101363.78;5043708;27;45725;-84
2022/03/08 08:12:26;;;;;;;;;34.25;29.00;;;;;7.72;37.55;101382.78;5045531;27;45536;-84
2022/03/08 08:14:51;;;;;;;;;43.00;34.25;;;;;7.50;37.19;101334.63;5030705;28;45687;-81
2022/03/08 08:17:18;;;;;;;;;40.00;37.00;;;;;7.83;37.39;101383.41;5026599;28;45470;-81
2022/03/08 08:19:43;;;;;;;;;32.50;30.50;;;;;7.97;37.01;101379.59;5034265;27;45420;-83
2022/03/08 08:22:08;;;;;;;;;37.00;33.25;;;;;8.03;36.94;101352.91;5027200;28;46323;-83
2022/03/08 08:24:34;;;;;;;;;44.75;36.00;;;;;8.32;36.65;101384.06;5024324;28;45619;-83
2022/03/08 08:26:59;;;;;;;;;41.75;34.00;;;;;8.23;36.37;101358.59;5026762;28;45675;-83
2022/03/08 08:29:28;;;;;;;;;41.75;35.25;;;;;8.41;36.38;101380.38;5036759;28;45259;-82
2022/03/08 08:31:53;;;;;;;;;42.50;35.75;;;;;8.47;36.20;101381.97;5031866;28;46351;-81
2022/03/08 08:34:19;;;;;;;;;38.00;32.50;;;;;8.40;36.29;101371.50;5027760;27;45522;-85
2022/03/08 08:36:46;;;;;;;;;40.75;34.00;;;;;8.24;36.34;101341.78;5022370;28;45689;-88
2022/03/08 08:39:14;;;;;;;;;45.00;36.00;;;;;8.39;36.55;101358.25;5028628;28;45457;-85
2022/03/08 08:41:42;;;;;;;;;40.75;36.25;;;;;8.40;36.11;101350.25;5019063;28;46232;-87
2022/03/08 08:44:07;;;;;;;;;46.75;34.75;;;;;7.91;35.94;101273.56;5018929;28;45664;-87
2022/03/08 08:46:32;;;;;;;;;38.25;32.50;;;;;8.09;35.67;101283.72;5027379;28;45460;-86
2022/03/08 08:48:58;;;;;;;;;46.50;35.75;;;;;8.79;35.95;101399.78;5029521;28;45622;-85
2022/03/08 08:51:23;;;;;;;;;40.50;35.75;;;;;8.78;35.84;101390.03;5026948;28;45454;-86
2022/03/08 08:53:48;;;;;;;;;42.25;35.00;;;;;8.35;35.82;101314.06;5019148;28;45451;-85
2022/03/08 08:56:14;;;;;;;;;48.00;35.50;;;;;8.10;36.03;101250.06;5024922;28;45486;-87
2022/03/08 08:58:39;;;;;;;;;39.25;35.00;;;;;8.31;35.63;101268.13;5040367;27;45522;-87
2022/03/08 09:01:04;;;;;;;;;45.00;35.75;;;;;8.47;35.07;101283.69;5032062;27;45964;-87
2022/03/08 09:03:30;;;;;;;;;47.00;36.75;;;;;8.84;35.46;101331.41;5032072;27;45744;-87
2022/03/08 09:05:59;;;;;;;;;46.00;37.75;;;;;9.64;35.03;101390.34;5046515;27;45533;-86
2022/03/08 09:08:24;;;;;;;;;45.25;37.50;;;;;10.06;33.90;101368.66;5014720;27;45459;-89
2022/03/08 09:10:53;;;;;;;;;44.25;37.75;;;;;10.29;33.55;101374.16;5019605;28;45376;-88
2022/03/08 09:13:20;;;;;;;;;47.75;38.50;;;;;10.06;33.52;101323.38;5022675;28;45455;-89
2022/03/08 09:15:46;;;;;;;;;41.00;33.50;;;;;10.59;33.48;101375.88;5017641;28;45581;-88
2022/03/08 09:18:11;;;;;;;;;45.50;36.75;;;;;10.72;33.16;101369.16;5030876;28;45559;-88
2022/03/08 09:20:38;;;;;;;;;45.50;38.50;;;;;10.71;32.79;101317.66;5013522;28;48182;-88
2022/03/08 09:23:04;;;;;;;;;42.75;33.50;;;;;11.43;32.50;101377.34;5013086;28;45367;-84
2022/03/08 09:25:30;;;;;;;;;49.25;39.00;;;;;11.86;31.69;101367.69;5030254;28;45192;-86
2022/03/08 09:27:55;;;;;;;;;45.75;38.25;;;;;12.36;31.85;101367.50;5020791;28;45524;-87
2022/03/08 09:30:21;;;;;;;;;44.75;37.50;;;;;12.91;31.27;101351.78;5028680;28;46080;-88
2022/03/08 09:32:47;;;;;;;;;50.00;38.75;;;;;13.56;29.76;101354.28;5017513;27;45777;-89
2022/03/08 09:35:12;;;;;;;;;45.75;36.25;;;;;14.23;29.41;101356.41;5020355;28;45573;-87
2022/03/08 09:37:38;;;;;;;;;48.25;38.00;;;;;14.92;28.36;101325.25;5017344;27;45532;-86
2022/03/08 09:40:04;;;;;;;;;40.25;34.75;;;;;15.86;27.14;101315.66;5016070;28;47347;-85
2022/03/08 09:42:30;;;;;;;;;46.00;39.25;;;;;16.80;26.35;101347.88;5030167;28;45439;-87
2022/03/08 09:44:56;;;;;;;;;41.50;35.00;;;;;17.23;25.71;101348.84;5022089;28;45709;-87
2022/03/08 09:47:22;;;;;;;;;41.00;34.25;;;;;17.44;25.54;101340.34;5021193;28;45527;-87
2022/03/08 09:49:48;;;;;;;;;41.00;35.33;;;;;17.78;25.23;101330.97;5030158;27;46302;-87
2022/03/08 09:52:15;;;;;;;;;38.00;32.75;;;;;18.52;23.82;101350.44;5023645;28;45397;-84
2022/03/08 09:54:43;;;;;;;;;39.33;34.67;;;;;19.07;23.94;101291.78;5035958;28;45336;-86
2022/03/08 09:57:10;;;;;;;;;34.67;32.00;;;;;20.29;22.25;101316.25;5036078;28;45537;-82
2022/03/08 09:59:36;;;;;;;;;34.67;31.67;;;;;21.38;21.55;101294.25;5031944;28;48237;-88
2022/03/08 10:02:02;;;;;;;;;36.00;32.67;;;;;22.84;20.24;101325.59;5033861;27;45846;-87
2022/03/08 10:04:27;;;;;;;;;36.00;32.00;;;;;24.11;19.28;101318.88;5029793;28;45305;-86
2022/03/08 10:06:52;;;;;;;;;38.00;32.67;;;;;25.02;18.43;101271.19;5024852;28;45415;-86
2022/03/08 10:09:20;;;;;;;;;36.33;32.33;;;;;26.24;17.46;101287.41;5035885;28;45254;-86
2022/03/08 10:11:50;;;;;;;;;39.67;33.67;;;;;26.93;16.64;101268.50;5028426;27;45370;-86
2022/03/08 10:14:37;;;;;;;;;37.33;32.33;;;;;28.30;16.40;101305.88;5036475;28;45616;-86
2022/03/08 10:17:03;;;;;;;;;39.33;31.67;;;;;29.15;14.89;101267.09;5035922;28;45482;-86
2022/03/08 10:19:29;;;;;;;;;35.33;32.67;;;;;30.14;14.84;101284.88;5035790;28;45429;-86
2022/03/08 10:21:57;;;;;;;;;35.33;32.33;;;;;30.98;13.73;101298.66;5036156;28;45527;-86
2022/03/08 10:24:29;;;;;;;;;43.67;34.33;;;;;31.77;13.68;101273.25;5036284;27;45416;-87
2022/03/08 10:26:57;;;;;;;;;42.67;36.67;;;;;32.97;13.07;101288.28;5036245;28;45340;-87
2022/03/08 10:29:36;;;;;;;;;45.67;35.67;;;;;33.46;12.65;101245.00;5035034;28;46062;-88
2022/03/08 10:32:18;;;;;;;;;40.33;34.00;;;;;34.22;12.33;101278.91;5029281;28;45431;-86
2022/03/08 10:34:49;;;;;;;;;43.33;36.00;;;;;34.66;11.34;101260.00;5032132;28;45327;-86
2022/03/08 10:37:20;;;;;;;;;34.67;32.00;;;;;34.81;11.36;101201.59;5032823;28;45420;-87
2022/03/08 10:39:56;;;;;;;;;39.33;33.33;;;;;35.68;10.81;101269.59;5034574;28;45586;-87
2022/03/08 10:42:25;;;;;;;;;35.00;32.00;;;;;36.03;10.88;101216.44;5049691;27;45330;-87
2022/03/08 10:44:59;;;;;;;;;42.33;33.67;;;;;36.50;10.65;101239.19;5075686;27;45393;-87
2022/03/08 10:47:24;;;;;;;;;45.00;35.67;;;;;36.64;9.38;101189.94;5037093;27;45401;-87
2022/03/08 10:49:54;;;;;;;;;44.67;36.33;;;;;37.53;10.14;101262.75;5118467;27;46084;-87
2022/03/08 10:52:26;;;;;;;;;39.67;34.00;;;;;37.88;9.46;101261.19;5034930;28;45693;-87
2022/03/08 10:54:51;;;;;;;;;38.00;34.00;;;;;37.44;9.73;101177.03;5034775;28;45292;-87
2022/03/08 10:57:17;;;;;;;;;46.33;36.67;;;;;37.74;9.39;101216.03;5035949;28;45349;-87
2022/03/08 10:59:56;;;;;;;;;35.67;33.33;;;;;37.74;9.23;101229.94;5015287;28;48396;-87
2022/03/08 11:02:23;;;;;;;;;45.33;36.33;;;;;37.68;8.97;101242.03;5034261;28;45457;-87
2022/03/08 11:05:07;;;;;;;;;39.00;34.00;;;;;36.77;9.47;101169.50;5034369;28;45701;-87
2022/03/08 11:07:34;;;;;;;;;39.33;33.67;;;;;37.04;9.78;101245.09;5035584;28;45528;-87
2022/03/08 11:09:59;;;;;;;;;38.00;35.00;;;;;36.20;9.75;101204.81;5024496;27;45552;-87
2022/03/08 11:12:25;;;;;;;;;43.00;35.67;;;;;35.67;10.43;101217.13;5024253;28;45374;-92